Time;durP1;ratioP1;P1;durP2;ratioP2;P2;SDS_P1;SDS_P2;PMS_P1;PMS_P2;Temp;Humidity;BMP_temperature;BMP_pressure;BME280_temperature;BME280_humidity;BME280_pressure;Samples;Min_cycle;Max_cycle;Signal;HPM_P1;HPM_P2
2022/07/12 00:01:34;;;;;;;6.70;1.20;;;;;;;18.31;42.20;100218.62;4438779;32;34072;-73
2022/07/12 00:04:04;;;;;;;3.78;1.23;;;;;;;18.43;41.27;100213.87;4439133;32;34803;-73
2022/07/12 00:06:34;;;;;;;3.05;1.08;;;;;;;18.76;40.08;100206.75;4437027;32;34229;-72
2022/07/12 00:09:03;;;;;;;2.67;1.00;;;;;;;18.60;40.25;100218.62;4438908;32;34651;-73
2022/07/12 00:11:30;;;;;;;4.35;1.20;;;;;;;18.51;40.54;100212.63;4439004;32;33210;-72
2022/07/12 00:13:58;;;;;;;5.05;1.05;;;;;;;18.47;40.84;100219.78;4437879;32;33733;-73
2022/07/12 00:16:28;;;;;;;2.60;0.90;;;;;;;18.54;40.64;100217.69;4438941;32;34355;-73
2022/07/12 00:18:55;;;;;;;3.17;1.30;;;;;;;18.42;40.85;100214.13;4437783;32;33806;-73
2022/07/12 00:21:26;;;;;;;5.75;1.40;;;;;;;18.34;41.08;100215.34;4439100;32;33252;-73
2022/07/12 00:23:54;;;;;;;6.25;1.12;;;;;;;18.57;40.71;100216.34;4438394;32;33778;-72
2022/07/12 00:26:29;;;;;;;5.10;1.30;;;;;;;18.41;40.88;100218.84;4437245;32;34233;-73
2022/07/12 00:28:57;;;;;;;6.15;1.30;;;;;;;18.38;41.27;100216.53;4451576;32;34613;-73
2022/07/12 00:31:25;;;;;;;3.58;1.15;;;;;;;18.50;40.77;100210.94;4455436;32;31842;-73
2022/07/12 00:33:53;;;;;;;5.22;1.05;;;;;;;18.71;40.04;100215.00;4469375;32;33682;-72
2022/07/12 00:36:20;;;;;;;3.95;0.90;;;;;;;18.63;40.12;100210.69;4469145;32;34555;-72
2022/07/12 00:38:48;;;;;;;4.82;1.12;;;;;;;18.68;39.91;100216.34;4469325;32;33913;-73
2022/07/12 00:41:15;;;;;;;4.70;1.17;;;;;;;18.79;39.62;100210.97;4469473;32;33123;-73
2022/07/12 00:43:43;;;;;;;4.72;1.10;;;;;;;18.66;39.88;100217.69;4455306;32;33064;-73
2022/07/12 00:46:11;;;;;;;5.60;1.37;;;;;;;18.63;39.83;100219.03;4469533;32;34340;-73
2022/07/12 00:48:39;;;;;;;5.32;1.12;;;;;;;18.70;39.54;100216.94;4468385;32;33892;-72
2022/07/12 00:51:07;;;;;;;2.37;1.02;;;;;;;18.65;39.65;100221.56;4469415;32;33324;-72
2022/07/12 00:53:36;;;;;;;6.93;1.00;;;;;;;18.66;39.58;100223.25;4468586;32;33785;-72
2022/07/12 00:56:05;;;;;;;3.62;0.98;;;;;;;18.65;39.48;100230.75;4468227;32;34400;-72
2022/07/12 00:58:33;;;;;;;5.35;1.35;;;;;;;18.81;39.14;100217.13;4469206;32;34728;-72
2022/07/12 01:01:00;;;;;;;2.62;0.90;;;;;;;18.69;39.39;100220.81;4468084;32;33267;-73
2022/07/12 01:03:31;;;;;;;6.95;1.23;;;;;;;18.59;39.66;100219.72;4468103;32;34521;-72
2022/07/12 01:06:00;;;;;;;3.90;1.08;;;;;;;18.58;39.67;100221.66;4468371;32;35230;-72
2022/07/12 01:08:29;;;;;;;4.05;1.40;;;;;;;18.51;39.80;100223.75;4467854;32;33776;-73
2022/07/12 01:10:58;;;;;;;4.53;1.20;;;;;;;18.67;39.47;100227.72;4467898;32;33154;-72
2022/07/12 01:13:26;;;;;;;6.32;1.70;;;;;;;18.44;39.95;100229.47;4467927;32;33645;-72
2022/07/12 01:15:53;;;;;;;3.50;1.40;;;;;;;18.38;40.26;100229.59;4455327;32;34443;-73
2022/07/12 01:18:22;;;;;;;5.57;1.50;;;;;;;18.44;40.21;100228.62;4467427;32;33909;-73
2022/07/12 01:20:50;;;;;;;6.30;1.60;;;;;;;18.42;40.32;100225.22;4454973;32;33163;-73
2022/07/12 01:23:17;;;;;;;6.97;1.85;;;;;;;18.41;40.23;100215.22;4467602;32;34192;-73
2022/07/12 01:25:45;;;;;;;6.40;1.60;;;;;;;18.26;40.55;100224.06;4467642;32;33388;-73
2022/07/12 01:28:12;;;;;;;5.55;1.77;;;;;;;18.09;41.06;100215.69;4468734;32;34662;-73
2022/07/12 01:30:41;;;;;;;7.03;1.98;;;;;;;18.35;40.51;100211.47;4469048;32;33147;-72
2022/07/12 01:33:08;;;;;;;7.35;1.70;;;;;;;18.22;40.98;100208.12;4467798;32;33613;-72
2022/07/12 01:35:36;;;;;;;3.92;1.60;;;;;;;18.13;41.19;100215.19;4467730;32;34518;-72
2022/07/12 01:38:03;;;;;;;7.45;2.20;;;;;;;18.12;41.24;100208.81;4467787;32;34605;-73
2022/07/12 01:40:31;;;;;;;7.35;2.17;;;;;;;17.97;41.82;100209.31;4468742;32;33428;-72
2022/07/12 01:42:59;;;;;;;7.65;2.00;;;;;;;18.18;41.41;100207.81;4468965;32;34585;-72
2022/07/12 01:45:27;;;;;;;6.18;2.17;;;;;;;17.87;42.31;100211.03;4468661;32;34284;-72
2022/07/12 01:47:58;;;;;;;8.07;2.25;;;;;;;18.03;41.79;100207.50;4468719;32;33773;-72
2022/07/12 01:50:26;;;;;;;8.68;2.05;;;;;;;17.93;42.12;100212.81;4471022;32;33172;-73
2022/07/12 01:52:54;;;;;;;7.53;2.30;;;;;;;17.87;42.15;100202.69;4471319;32;33628;-72
2022/07/12 01:55:23;;;;;;;8.10;2.25;;;;;;;18.01;41.96;100209.66;4471045;32;34880;-72
2022/07/12 01:57:56;;;;;;;6.18;2.15;;;;;;;17.84;42.25;100198.47;4471227;32;33605;-73
2022/07/12 02:00:25;;;;;;;6.03;2.10;;;;;;;17.63;43.00;100205.47;4469687;32;33953;-72
2022/07/12 02:02:53;;;;;;;7.03;2.20;;;;;;;17.67;42.90;100203.06;4469911;32;33728;-72
2022/07/12 02:05:21;;;;;;;7.30;1.90;;;;;;;17.83;42.64;100199.56;4470788;32;35210;-73
2022/07/12 02:07:49;;;;;;;7.32;2.50;;;;;;;17.84;42.58;100206.81;4470364;32;33951;-72
2022/07/12 02:10:17;;;;;;;9.70;2.60;;;;;;;17.69;43.12;100206.47;4471011;32;33159;-72
2022/07/12 02:12:48;;;;;;;8.80;2.05;;;;;;;17.68;43.11;100196.44;4471072;32;33842;-72
2022/07/12 02:15:16;;;;;;;6.37;1.70;;;;;;;17.81;42.76;100207.28;4469377;32;33123;-72
2022/07/12 02:17:44;;;;;;;9.13;1.98;;;;;;;17.70;43.32;100210.91;4471084;32;33693;-72
2022/07/12 02:20:12;;;;;;;5.50;2.00;;;;;;;17.74;43.21;100204.62;4470916;32;33257;-73
2022/07/12 02:22:41;;;;;;;6.20;1.80;;;;;;;17.80;43.04;100205.59;4470958;32;33752;-72
2022/07/12 02:25:08;;;;;;;6.65;2.05;;;;;;;17.71;43.32;100209.84;4470779;32;35270;-72
2022/07/12 02:27:38;;;;;;;7.43;1.90;;;;;;;17.77;43.20;100211.62;4471001;32;34687;-72
2022/07/12 02:30:07;;;;;;;7.80;1.55;;;;;;;17.85;42.96;100211.28;4469468;32;33934;-72
2022/07/12 02:32:34;;;;;;;4.80;1.50;;;;;;;17.86;42.60;100207.41;4469568;32;34714;-73
2022/07/12 02:35:03;;;;;;;3.15;1.30;;;;;;;17.91;42.52;100210.28;4469616;32;34631;-72
2022/07/12 02:37:34;;;;;;;7.18;1.73;;;;;;;18.05;42.09;100208.09;4470909;32;33977;-72
2022/07/12 02:42:53;;;;;;;4.70;1.80;;;;;;;17.67;43.15;100217.81;4471053;32;33713;-73
2022/07/12 02:45:21;;;;;;;4.45;1.58;;;;;;;17.68;43.17;100215.88;4470595;32;35157;-73
2022/07/12 02:47:48;;;;;;;4.30;1.27;;;;;;;17.70;43.27;100214.53;4470572;32;33847;-72
2022/07/12 02:50:19;;;;;;;4.15;1.60;;;;;;;17.66;43.44;100210.56;4470601;32;34074;-72
2022/07/12 02:52:49;;;;;;;5.07;1.73;;;;;;;17.60;43.71;100219.81;4469395;32;33402;-72
2022/07/12 02:55:18;;;;;;;6.65;1.90;;;;;;;17.66;43.54;100223.59;4469603;32;34716;-72
2022/07/12 02:57:45;;;;;;;3.65;1.30;;;;;;;17.60;43.76;100228.16;4469432;32;34540;-73
2022/07/12 03:00:13;;;;;;;4.93;1.30;;;;;;;17.63;43.78;100226.81;4469430;32;34479;-73
2022/07/12 03:02:41;;;;;;;3.85;1.40;;;;;;;17.56;43.97;100221.38;4470524;32;34350;-72
2022/07/12 03:05:08;;;;;;;5.07;1.40;;;;;;;17.60;43.98;100221.75;4469351;32;34729;-72
2022/07/12 03:07:36;;;;;;;6.53;1.30;;;;;;;17.45;44.46;100230.59;4470706;32;34038;-72
2022/07/12 03:10:04;;;;;;;4.60;1.45;;;;;;;17.45;44.60;100225.88;4470679;32;34492;-72
2022/07/12 03:12:32;;;;;;;5.03;1.90;;;;;;;17.45;44.69;100225.03;4469109;32;34309;-72
2022/07/12 03:14:59;;;;;;;4.75;1.60;;;;;;;17.36;44.92;100224.56;4469276;32;34315;-72
2022/07/12 03:17:29;;;;;;;5.37;1.95;;;;;;;17.42;44.90;100231.06;4469246;32;33694;-73
2022/07/12 03:19:57;;;;;;;3.62;1.17;;;;;;;17.47;44.75;100231.19;4469253;32;33380;-72
2022/07/12 03:22:25;;;;;;;4.65;1.12;;;;;;;17.60;44.31;100232.84;4469161;32;33902;-73
2022/07/12 03:24:52;;;;;;;3.00;1.10;;;;;;;17.61;44.29;100229.00;4470459;32;34880;-72
2022/07/12 03:27:20;;;;;;;5.37;1.75;;;;;;;17.53;44.55;100232.16;4470157;32;34498;-73
2022/07/12 03:29:47;;;;;;;4.53;1.05;;;;;;;17.49;44.90;100228.19;4468978;32;34115;-72
2022/07/12 03:32:16;;;;;;;5.03;1.10;;;;;;;17.81;44.16;100235.06;4469233;32;33946;-72
2022/07/12 03:34:43;;;;;;;2.72;1.12;;;;;;;17.80;44.10;100238.91;4470531;32;34641;-72
2022/07/12 03:37:11;;;;;;;3.15;1.08;;;;;;;17.88;43.67;100240.47;4470203;32;34756;-73
2022/07/12 03:39:39;;;;;;;2.15;1.08;;;;;;;17.93;43.48;100241.44;4470254;32;34085;-73
2022/07/12 03:42:11;;;;;;;3.87;0.80;;;;;;;17.84;43.69;100236.50;4470313;32;33772;-73
2022/07/12 03:44:39;;;;;;;4.15;1.00;;;;;;;17.86;43.64;100243.50;4470072;32;34445;-72
2022/07/12 03:47:07;;;;;;;2.10;1.02;;;;;;;17.82;43.72;100241.44;4469120;32;34713;-72
2022/07/12 03:49:35;;;;;;;2.80;0.93;;;;;;;17.93;43.48;100249.78;4470261;32;34183;-72
2022/07/12 03:52:03;;;;;;;4.22;0.90;;;;;;;18.01;43.34;100241.06;4470147;32;33613;-72
2022/07/12 03:54:33;;;;;;;2.95;1.12;;;;;;;18.06;43.26;100237.56;4468971;32;34643;-72
2022/07/12 03:57:13;;;;;;;2.92;0.85;;;;;;;18.10;43.17;100239.59;4470129;32;34628;-73
2022/07/12 03:59:45;;;;;;;3.15;1.10;;;;;;;18.03;43.42;100238.03;4470083;32;33425;-73
2022/07/12 04:02:12;;;;;;;1.73;1.00;;;;;;;18.14;43.35;100239.12;4469009;32;33539;-72
2022/07/12 04:04:41;;;;;;;3.12;0.90;;;;;;;17.99;43.73;100245.19;4468870;32;35117;-73
2022/07/12 04:07:12;;;;;;;4.25;1.15;;;;;;;18.01;43.64;100241.06;4469910;32;33951;-72
2022/07/12 04:09:39;;;;;;;4.05;1.10;;;;;;;17.98;43.85;100251.81;4469765;32;33292;-74
2022/07/12 04:12:07;;;;;;;4.57;0.98;;;;;;;17.86;44.43;100242.66;4455581;32;33931;-72
2022/07/12 04:14:35;;;;;;;2.90;0.93;;;;;;;18.16;43.69;100240.56;4470179;32;34689;-72
2022/07/12 04:17:04;;;;;;;3.45;0.90;;;;;;;18.25;43.40;100241.00;4468591;32;33748;-72
2022/07/12 04:19:33;;;;;;;2.80;0.98;;;;;;;18.36;43.16;100245.69;4468792;32;33329;-72
2022/07/12 04:22:01;;;;;;;3.92;1.20;;;;;;;18.28;43.40;100243.28;4468831;32;33901;-72
2022/07/12 04:24:28;;;;;;;4.53;1.10;;;;;;;18.27;43.55;100244.37;4470019;32;33658;-72
2022/07/12 04:26:56;;;;;;;3.65;0.90;;;;;;;18.28;43.58;100251.63;4469680;32;33988;-73
2022/07/12 04:29:24;;;;;;;3.28;1.10;;;;;;;18.49;43.15;100248.16;4469724;32;33113;-72
2022/07/12 04:31:53;;;;;;;2.70;0.98;;;;;;;18.45;43.32;100249.75;4469713;32;33981;-72
2022/07/12 04:34:22;;;;;;;3.55;1.17;;;;;;;18.53;43.20;100256.88;4469901;32;35333;-73
2022/07/12 04:36:50;;;;;;;2.70;1.02;;;;;;;18.73;42.88;100251.75;4469769;32;33812;-72
2022/07/12 04:39:17;;;;;;;6.40;1.30;;;;;;;18.76;42.91;100254.03;4469351;32;34229;-72
2022/07/12 04:41:45;;;;;;;3.15;1.10;;;;;;;18.74;43.08;100247.88;4470089;32;34454;-72
2022/07/12 04:44:12;;;;;;;3.70;1.10;;;;;;;18.76;43.11;100256.81;4468465;32;35238;-73
2022/07/12 04:46:40;;;;;;;4.40;1.23;;;;;;;18.83;43.06;100246.38;4469429;32;34639;-73
2022/07/12 04:49:08;;;;;;;3.28;0.90;;;;;;;18.89;43.10;100253.69;4469743;32;33962;-73
2022/07/12 04:51:36;;;;;;;4.00;0.80;;;;;;;18.98;42.93;100246.63;4468361;32;34383;-72
2022/07/12 04:54:03;;;;;;;8.32;1.15;;;;;;;19.14;42.49;100249.69;4469358;32;35305;-73
2022/07/12 04:56:31;;;;;;;2.83;0.95;;;;;;;18.89;42.85;100248.13;4469313;32;33882;-73
2022/07/12 04:58:58;;;;;;;4.25;1.12;;;;;;;19.10;42.41;100249.34;4468074;32;33177;-73
2022/07/12 05:01:32;;;;;;;2.87;1.20;;;;;;;18.91;42.61;100254.28;4468325;32;33641;-73
2022/07/12 05:04:00;;;;;;;4.40;1.33;;;;;;;19.02;42.58;100244.19;4468450;32;35243;-73
2022/07/12 05:06:30;;;;;;;4.47;1.12;;;;;;;19.09;42.50;100240.16;4469410;32;33768;-73
2022/07/12 05:09:00;;;;;;;3.17;1.08;;;;;;;19.27;42.29;100247.41;4468340;32;33026;-77
2022/07/12 05:11:28;;;;;;;2.85;1.02;;;;;;;19.47;42.02;100246.06;4455283;32;32278;-77
2022/07/12 05:13:58;;;;;;;3.72;1.00;;;;;;;19.25;41.99;100251.56;4455239;32;34399;-76
2022/07/12 05:16:27;;;;;;;5.97;1.08;;;;;;;19.23;41.75;100249.03;4455105;32;34556;-78
2022/07/12 05:18:55;;;;;;;3.95;1.00;;;;;;;18.81;42.69;100251.34;4468342;32;33123;-76
2022/07/12 05:21:23;;;;;;;2.70;0.95;;;;;;;19.56;41.16;100248.19;4442336;32;33343;-77
2022/07/12 05:23:53;;;;;;;3.25;1.10;;;;;;;19.66;41.14;100253.06;4469686;32;35466;-75
2022/07/12 05:26:23;;;;;;;3.45;1.25;;;;;;;19.72;41.32;100255.69;4457388;32;33296;-77
2022/07/12 05:28:51;;;;;;;1.45;0.80;;;;;;;19.69;41.37;100253.41;4470011;32;33680;-77
2022/07/12 05:31:18;;;;;;;3.42;1.12;;;;;;;19.95;41.18;100257.41;4457464;32;33848;-77
2022/07/12 05:33:47;;;;;;;4.65;0.93;;;;;;;19.91;42.01;100261.81;4457104;32;34804;-77
2022/07/12 05:36:17;;;;;;;3.00;0.70;;;;;;;19.95;41.58;100262.16;4469983;32;33707;-77
2022/07/12 05:38:47;;;;;;;4.35;1.00;;;;;;;19.55;41.03;100254.84;4470001;32;33358;-77
2022/07/12 05:41:17;;;;;;;3.90;1.05;;;;;;;19.99;40.59;100258.59;4457301;32;33659;-77
2022/07/12 05:43:45;;;;;;;2.87;1.12;;;;;;;19.36;41.38;100257.03;4469945;32;34426;-77
2022/07/12 05:46:13;;;;;;;5.53;1.10;;;;;;;19.61;41.14;100258.56;4456984;32;34541;-78
2022/07/12 05:48:43;;;;;;;3.15;1.08;;;;;;;20.01;41.04;100255.56;4456989;32;33867;-78
2022/07/12 05:53:57;;;;;;;7.28;1.50;;;;;;;20.36;40.93;100257.94;4458937;32;32965;-79
2022/07/12 05:56:26;;;;;;;5.25;1.08;;;;;;;20.58;41.05;100258.81;4457014;32;34642;-78
2022/07/12 05:58:56;;;;;;;3.60;0.90;;;;;;;20.56;40.79;100260.19;4443695;32;31898;-78
2022/07/12 06:01:27;;;;;;;3.12;0.90;;;;;;;20.22;40.70;100253.84;4457036;32;33729;-76
2022/07/12 06:03:58;;;;;;;7.40;1.10;;;;;;;20.34;40.64;100257.37;4456794;32;34270;-78
2022/07/12 06:06:28;;;;;;;4.37;1.10;;;;;;;20.93;39.73;100257.50;4457324;32;33946;-78
2022/07/12 06:08:58;;;;;;;4.22;0.82;;;;;;;21.48;38.82;100256.34;4457066;32;33892;-78
2022/07/12 06:11:28;;;;;;;4.53;0.90;;;;;;;21.07;38.88;100252.34;4469638;32;34648;-79
2022/07/12 06:13:56;;;;;;;1.95;0.90;;;;;;;21.21;38.47;100245.22;4456338;32;32891;-78
2022/07/12 06:16:26;;;;;;;7.75;1.35;;;;;;;21.30;38.77;100247.31;4456976;32;33567;-77
2022/07/12 06:18:59;;;;;;;9.10;1.70;;;;;;;21.64;38.32;100236.66;4469519;32;32927;-81
2022/07/12 06:21:33;;;;;;;3.05;1.17;;;;;;;21.78;38.86;100242.62;4456532;32;34400;-82
2022/07/12 06:24:03;;;;;;;7.80;1.10;;;;;;;21.34;37.87;100237.28;4456704;32;33333;-80
2022/07/12 06:26:33;;;;;;;4.22;1.02;;;;;;;21.74;37.42;100233.09;4454656;32;34103;-82
2022/07/12 06:29:01;;;;;;;4.75;1.27;;;;;;;21.78;37.26;100239.81;4459217;32;34620;-81
2022/07/12 06:31:28;;;;;;;2.58;0.90;;;;;;;21.90;36.94;100240.47;4446638;32;33373;-79
2022/07/12 06:34:02;;;;;;;2.35;0.90;;;;;;;22.07;36.26;100245.91;4472096;32;34499;-81
2022/07/12 06:36:31;;;;;;;5.62;1.00;;;;;;;22.27;36.02;100239.56;4472247;32;33995;-80
2022/07/12 06:38:58;;;;;;;5.45;1.00;;;;;;;22.17;36.09;100250.69;4445770;32;33136;-81
2022/07/12 06:41:29;;;;;;;2.25;0.80;;;;;;;22.08;36.51;100246.75;4430944;32;33265;-82
2022/07/12 06:43:56;;;;;;;4.00;1.08;;;;;;;22.22;35.77;100253.50;4444006;32;34366;-82
2022/07/12 06:46:24;;;;;;;4.78;0.88;;;;;;;22.14;35.79;100254.03;4442995;32;33973;-82
2022/07/12 06:48:52;;;;;;;7.35;1.20;;;;;;;22.36;35.35;100240.72;4443545;32;33499;-81
2022/07/12 06:51:20;;;;;;;3.35;0.90;;;;;;;22.15;36.26;100253.75;4443884;32;33498;-82
2022/07/12 06:53:47;;;;;;;3.17;0.88;;;;;;;22.21;36.74;100263.00;4443554;32;33044;-82
2022/07/12 06:56:15;;;;;;;3.62;0.85;;;;;;;22.25;35.87;100251.00;4443470;32;33994;-81
2022/07/12 06:58:42;;;;;;;5.32;1.10;;;;;;;22.11;35.93;100248.97;4454438;32;33222;-81
2022/07/12 07:01:10;;;;;;;5.47;0.98;;;;;;;22.11;36.12;100246.19;4441624;32;34012;-79
2022/07/12 07:03:38;;;;;;;3.37;0.80;;;;;;;22.13;36.25;100242.00;4441691;32;35092;-81
2022/07/12 07:06:06;;;;;;;6.00;0.90;;;;;;;22.31;36.55;100247.13;4441768;32;33608;-81
2022/07/12 07:08:33;;;;;;;6.75;1.33;;;;;;;22.53;37.01;100246.94;4454057;32;33341;-82
2022/07/12 07:11:01;;;;;;;3.87;1.00;;;;;;;22.55;36.64;100250.31;4441898;32;33765;-82
2022/07/12 07:13:29;;;;;;;2.20;0.93;;;;;;;22.55;36.31;100250.31;4430870;32;34626;-79
2022/07/12 07:15:56;;;;;;;2.95;0.95;;;;;;;22.48;36.04;100255.31;4430708;32;34206;-79
2022/07/12 07:18:24;;;;;;;3.87;1.00;;;;;;;22.65;35.88;100247.56;4443747;32;34076;-79
2022/07/12 07:20:52;;;;;;;5.12;1.02;;;;;;;22.74;34.92;100238.62;4443535;32;33833;-79
2022/07/12 07:23:19;;;;;;;3.10;0.68;;;;;;;23.19;34.54;100246.28;4443207;32;33113;-78
2022/07/12 07:25:47;;;;;;;3.75;1.00;;;;;;;22.94;34.68;100249.88;4443549;32;33881;-79
2022/07/12 07:28:15;;;;;;;7.18;1.30;;;;;;;23.05;34.32;100250.72;4443194;32;31536;-78
2022/07/12 07:30:54;;;;;;;4.82;1.10;;;;;;;23.14;34.72;100238.72;4445707;32;33688;-78
2022/07/12 07:33:22;;;;;;;4.03;0.93;;;;;;;23.20;34.90;100254.41;4456430;32;34258;-77
2022/07/12 07:35:51;;;;;;;3.00;0.70;;;;;;;23.25;34.66;100239.56;4443509;32;33899;-79
2022/07/12 07:38:19;;;;;;;2.40;0.65;;;;;;;23.44;33.45;100242.62;4443222;32;32495;-78
2022/07/12 07:40:47;;;;;;;3.20;0.85;;;;;;;23.54;33.02;100242.66;4443233;32;34664;-75
2022/07/12 07:43:14;;;;;;;2.20;0.85;;;;;;;23.62;32.86;100239.28;4443047;32;33936;-78
2022/07/12 07:45:42;;;;;;;2.45;0.77;;;;;;;23.69;33.21;100237.03;4442319;32;33383;-78
2022/07/12 07:48:10;;;;;;;4.28;1.17;;;;;;;23.88;33.28;100238.13;4443218;32;33197;-78
2022/07/12 07:50:53;;;;;;;1.92;0.65;;;;;;;24.02;32.25;100234.75;4454225;32;32442;-79
2022/07/12 07:53:21;;;;;;;3.22;0.90;;;;;;;24.00;32.59;100235.03;4442874;32;33908;-78
2022/07/12 07:55:48;;;;;;;5.07;1.05;;;;;;;23.94;32.57;100234.19;4442928;32;32539;-78
2022/07/12 07:58:16;;;;;;;3.78;0.93;;;;;;;24.28;32.19;100237.19;4442986;32;31712;-78
2022/07/12 08:00:44;;;;;;;5.68;1.05;;;;;;;24.48;31.99;100227.84;4443039;32;33591;-78
2022/07/12 08:03:11;;;;;;;4.75;1.25;;;;;;;24.60;32.67;100235.94;4455932;32;35167;-78
2022/07/12 08:05:39;;;;;;;4.90;1.10;;;;;;;24.80;31.93;100229.34;4443241;32;33917;-78
2022/07/12 08:08:07;;;;;;;1.62;0.82;;;;;;;24.77;32.39;100239.19;4442578;32;32474;-77
2022/07/12 08:10:35;;;;;;;3.58;1.10;;;;;;;24.84;31.21;100238.84;4442128;32;34741;-77
2022/07/12 08:13:03;;;;;;;5.07;1.10;;;;;;;24.89;31.14;100230.41;4442943;32;34670;-77
2022/07/12 08:15:31;;;;;;;3.72;1.02;;;;;;;25.10;31.03;100220.75;4455971;32;34520;-76
2022/07/12 08:18:05;;;;;;;2.67;1.25;;;;;;;25.20;30.78;100226.28;4454709;32;34050;-78
2022/07/12 08:20:33;;;;;;;1.70;0.90;;;;;;;25.19;30.77;100233.03;4442123;32;32488;-79
2022/07/12 08:23:19;;;;;;;5.57;1.10;;;;;;;25.11;30.48;100235.62;4433973;32;33185;-78
2022/07/12 08:25:53;;;;;;;7.15;1.40;;;;;;;24.86;30.96;100236.59;4443002;32;32862;-78
2022/07/12 08:28:26;;;;;;;4.22;1.20;;;;;;;24.74;31.55;100241.72;4455832;32;33104;-76
2022/07/12 08:30:56;;;;;;;4.70;1.15;;;;;;;24.93;31.00;100242.75;4455745;32;34462;-76
2022/07/12 08:33:25;;;;;;;3.95;1.23;;;;;;;25.05;31.10;100243.25;4430214;32;33401;-77
2022/07/12 08:35:55;;;;;;;5.05;1.23;;;;;;;24.95;31.25;100241.31;4455737;32;34054;-77
2022/07/12 08:38:23;;;;;;;6.37;1.12;;;;;;;24.86;31.42;100247.84;4442690;32;32603;-76
2022/07/12 08:40:50;;;;;;;4.50;1.40;;;;;;;24.83;31.72;100235.22;4430100;32;32099;-77
2022/07/12 08:43:18;;;;;;;2.65;0.93;;;;;;;24.93;31.39;100234.31;4442468;32;33057;-77
2022/07/12 08:45:47;;;;;;;5.97;1.25;;;;;;;25.08;30.72;100234.25;4446351;32;35002;-78
2022/07/12 08:48:15;;;;;;;4.37;1.02;;;;;;;25.08;31.19;100228.62;4443900;32;33136;-79
2022/07/12 08:50:43;;;;;;;4.43;1.20;;;;;;;25.22;31.04;100226.00;4449031;32;33460;-78
2022/07/12 08:53:15;;;;;;;4.93;1.10;;;;;;;25.10;31.43;100226.38;4448537;32;34057;-77
2022/07/12 08:55:43;;;;;;;3.05;0.90;;;;;;;25.44;30.25;100220.72;4444918;32;33275;-77
2022/07/12 08:58:16;;;;;;;4.93;1.15;;;;;;;25.63;29.70;100212.41;4457338;32;32908;-78
2022/07/12 09:00:47;;;;;;;2.70;1.08;;;;;;;25.67;29.64;100219.16;4444543;32;33628;-78
2022/07/12 09:03:19;;;;;;;3.90;1.05;;;;;;;25.97;29.37;100217.16;4444829;32;34287;-78
2022/07/12 09:05:58;;;;;;;3.12;0.90;;;;;;;26.06;29.37;100209.72;4471487;32;34713;-79
2022/07/12 09:08:31;;;;;;;3.45;1.17;;;;;;;25.94;29.54;100218.59;4457608;32;34017;-79
2022/07/12 09:11:02;;;;;;;2.12;0.73;;;;;;;26.20;28.86;100217.16;4457302;32;33761;-78
2022/07/12 09:13:53;;;;;;;2.50;0.70;;;;;;;26.43;28.42;100209.03;4447402;32;33864;-79
2022/07/12 09:16:23;;;;;;;1.92;0.73;;;;;;;26.44;27.70;100222.81;4436094;32;32369;-78
2022/07/12 09:18:52;;;;;;;3.22;0.80;;;;;;;26.41;27.92;100216.94;4477756;32;33858;-78
2022/07/12 09:21:27;;;;;;;1.87;0.60;;;;;;;26.80;27.48;100216.66;4459007;32;33481;-78
2022/07/12 09:23:56;;;;;;;3.72;0.80;;;;;;;27.08;27.79;100210.06;4447353;32;32809;-82
2022/07/12 09:26:34;;;;;;;3.97;0.70;;;;;;;27.02;26.97;100214.09;4450736;32;33618;-79
2022/07/12 09:29:09;;;;;;;1.90;0.65;;;;;;;26.77;26.90;100211.62;4454627;32;34161;-80
2022/07/12 09:31:39;;;;;;;4.03;1.30;;;;;;;27.04;26.73;100202.53;4444345;32;33122;-79
2022/07/12 09:37:03;;;;;;;3.10;1.00;;;;;;;26.46;27.38;100214.06;4440459;32;33947;-79
2022/07/12 09:39:34;;;;;;;2.42;0.80;;;;;;;25.68;28.00;100217.19;4446829;32;31869;-77
2022/07/12 09:42:04;;;;;;;1.12;0.73;;;;;;;25.79;28.52;100213.13;4464914;32;35751;-79
2022/07/12 09:44:33;;;;;;;7.37;1.20;;;;;;;25.35;28.68;100214.06;4463878;32;34646;-78
2022/07/12 09:47:03;;;;;;;4.78;0.93;;;;;;;25.97;28.26;100206.75;4458567;32;34862;-80
2022/07/12 09:49:33;;;;;;;5.05;1.30;;;;;;;26.35;27.36;100209.69;4439866;32;31752;-78
2022/07/12 09:52:15;;;;;;;2.72;0.73;;;;;;;26.45;27.69;100206.75;4450627;32;34709;-77
2022/07/12 09:54:46;;;;;;;11.05;1.37;;;;;;;26.04;27.46;100207.22;4458415;32;34331;-79
2022/07/12 09:57:32;;;;;;;7.85;1.20;;;;;;;26.18;28.24;100207.34;4453720;32;35055;-78
2022/07/12 10:00:01;;;;;;;4.03;0.80;;;;;;;26.44;27.39;100205.91;4451004;32;33090;-80
2022/07/12 10:02:41;;;;;;;4.55;1.00;;;;;;;26.28;27.42;100221.28;4452730;32;34065;-77
2022/07/12 10:05:47;;;;;;;3.35;0.80;;;;;;;26.39;26.46;100197.53;4463916;32;34135;-78
2022/07/12 10:08:28;;;;;;;5.75;1.05;;;;;;;26.85;26.12;100194.06;4458708;32;34362;-78
2022/07/12 10:10:56;;;;;;;7.15;1.10;;;;;;;27.01;26.01;100189.91;4472830;32;33191;-78
2022/07/12 10:13:43;;;;;;;1.98;0.80;;;;;;;26.90;26.55;100202.44;4459883;32;33895;-79
2022/07/12 10:16:38;;;;;;;2.12;0.68;;;;;;;26.77;25.85;100208.81;4448313;32;33202;-79
2022/07/12 10:19:35;;;;;;;3.12;0.90;;;;;;;27.33;26.08;100202.31;4456223;32;33658;-79
2022/07/12 10:22:09;;;;;;;2.30;0.75;;;;;;;27.58;25.11;100196.25;4457037;32;33931;-80
2022/07/12 10:24:51;;;;;;;3.92;0.98;;;;;;;27.93;26.21;100191.97;4472251;32;33655;-80
2022/07/12 10:27:24;;;;;;;3.20;0.70;;;;;;;28.29;25.07;100186.44;4473129;32;34523;-79
2022/07/12 10:29:52;;;;;;;2.55;0.85;;;;;;;28.31;23.71;100172.84;4471917;32;34679;-79
2022/07/12 10:32:58;;;;;;;4.37;0.80;;;;;;;28.65;23.50;100171.50;4459769;32;33179;-79
2022/07/12 10:36:09;;;;;;;2.53;0.60;;;;;;;28.61;22.85;100179.78;4459315;32;32908;-79
2022/07/12 10:39:22;;;;;;;3.05;0.62;;;;;;;28.76;23.02;100170.97;4471576;32;35230;-79
2022/07/12 10:42:32;;;;;;;5.20;0.80;;;;;;;28.98;24.20;100169.34;4460554;32;33933;-79
2022/07/12 10:45:28;;;;;;;3.28;0.98;;;;;;;28.66;22.80;100156.22;4486547;32;32950;-81
2022/07/12 10:48:34;;;;;;;3.35;0.68;;;;;;;28.82;22.82;100166.06;4460393;32;34554;-80
2022/07/12 10:51:48;;;;;;;8.40;1.48;;;;;;;28.40;22.91;100165.31;4459131;32;33126;-80
2022/07/12 10:55:00;;;;;;;6.20;1.20;;;;;;;28.00;24.27;100192.34;4452267;32;33328;-79
2022/07/12 10:58:01;;;;;;;17.35;2.45;;;;;;;26.69;31.09;100257.37;4462837;32;33214;-79
2022/07/12 11:00:29;;;;;;;9.43;1.55;;;;;;;26.09;37.82;100285.94;4472344;32;33810;-82
2022/07/12 11:03:01;;;;;;;2.40;0.90;;;;;;;25.68;40.45;100256.53;4459605;32;34391;-81
2022/07/12 11:05:35;;;;;;;2.95;0.98;;;;;;;25.28;37.41;100244.50;4459640;32;33952;-80
2022/07/12 11:08:13;;;;;;;3.05;1.05;;;;;;;25.04;42.01;100224.72;4459389;32;31757;-80
2022/07/12 11:10:59;;;;;;;2.65;0.70;;;;;;;24.99;42.73;100223.91;4447120;32;33135;-80
2022/07/12 11:13:28;;;;;;;3.03;0.90;;;;;;;24.78;45.04;100224.00;4459389;32;35174;-80
2022/07/12 11:16:00;;;;;;;2.78;0.98;;;;;;;24.79;46.38;100222.88;4459545;32;32322;-80
2022/07/12 11:18:34;;;;;;;4.45;1.10;;;;;;;24.92;47.28;100219.44;4471857;32;31626;-80
2022/07/12 11:21:06;;;;;;;3.55;1.33;;;;;;;25.21;48.53;100215.91;4445755;32;33284;-81
2022/07/12 11:23:34;;;;;;;3.47;0.88;;;;;;;25.42;44.45;100205.28;4471966;32;32915;-80
2022/07/12 11:26:06;;;;;;;3.55;1.08;;;;;;;25.76;43.67;100194.03;4459195;32;32449;-80
2022/07/12 11:28:37;;;;;;;6.05;1.30;;;;;;;25.99;47.94;100187.59;4459278;32;33919;-81
2022/07/12 11:31:17;;;;;;;2.75;0.90;;;;;;;26.40;47.92;100187.94;4472348;32;33605;-79
2022/07/12 11:33:47;;;;;;;3.62;1.00;;;;;;;26.47;42.27;100194.06;4433973;32;33318;-79
2022/07/12 11:36:15;;;;;;;4.53;1.00;;;;;;;26.55;38.62;100173.66;4458881;32;34053;-81
2022/07/12 11:38:46;;;;;;;3.35;0.70;;;;;;;26.90;35.46;100183.53;4441114;32;31669;-79
2022/07/12 11:41:25;;;;;;;6.80;0.88;;;;;;;26.48;34.49;100184.47;4453097;32;33748;-80
2022/07/12 11:44:03;;;;;;;2.95;1.05;;;;;;;26.85;35.84;100180.81;4459595;32;32982;-79
2022/07/12 11:46:49;;;;;;;2.55;0.82;;;;;;;26.73;33.15;100182.41;4445983;32;33653;-80
2022/07/12 11:49:54;;;;;;;4.07;0.90;;;;;;;27.06;31.38;100172.06;4463686;32;33565;-78
2022/07/12 11:52:24;;;;;;;2.28;0.90;;;;;;;27.53;31.77;100151.22;4446231;32;32182;-78